Flight Track Log - Related Links

Times and Time Zones

All times are in EDT time to prevent confusion due to time zone crossing. See the CTL22 flight status page for this flight to view local times or setup timezone preferences in your user account.

Time Position Orientation Groundspeed Altitude Reporting Facility
EDT Latitude Longitude Course Direction KTS MPH feet Rate Location/Type
Mon 09:55:55 PM 42.1992 -83.1983 297° West 174 200 6,000  Level Cleveland Center
Mon 09:57:00 PM 42.2270 -83.2515 305° West  Level FlightAware Approximate
Mon 09:57:02 PM 42.2225 -83.2667 305° West 174 200 6,000  Level Cleveland Center
Mon 09:59:04 PM 42.2592 -83.3886 292° West 172 198 6,000  Level Cleveland Center
Mon 09:59:59 PM 42.2744 -83.4456 290° West 175 201 6,000  Level Cleveland Center
Mon 10:01:00 PM 42.2069 -83.5590 297° West  Level Estimated
Mon 10:01:00 PM 42.2939 -83.5025 295° West 175 201 6,000  Level Cleveland Center
Mon 10:02:01 PM 42.3131 -83.5653 292° West 172 198 6,000 52 Level Cleveland Center
Mon 10:02:55 PM 42.3261 -83.6219 287° West 171 197 6,100  Climbing Cleveland Center
Mon 10:03:50 PM 42.3436 -83.6736 295° West 175 201 6,000  Descending Cleveland Center
Mon 10:04:57 PM 42.3647 -83.7419 293° West 174 200 6,100  Climbing Cleveland Center
Mon 10:06:10 PM 42.3919 -83.8136 297° West 171 197 6,000  Descending Cleveland Center
Mon 10:08:30 PM 42.4389 -83.9481 295° West 174 200 6,100 30 Climbing Chicago Center
Mon 10:09:31 PM 42.4567 -84.0089 292° West 174 200 6,100 -49 Level Chicago Center
Mon 10:10:32 PM 42.4739 -84.0697 291° West 173 199 6,000  Descending Chicago Center
Mon 10:11:33 PM 42.4911 -84.1303 291° West 172 198 6,100 49 Climbing Chicago Center
Mon 10:12:35 PM 42.5092 -84.1903 292° West 173 199 6,100  Level Chicago Center
Mon 10:13:36 PM 42.5250 -84.2506 290° West 171 197 6,100  Level Chicago Center
Mon 10:14:37 PM 42.5433 -84.3106 293° West 172 198 6,100  Level Chicago Center
Mon 10:15:38 PM 42.5614 -84.3675 293° West 167 192 6,100  Level Chicago Center
Mon 10:16:39 PM 42.5825 -84.4236 297° West 167 192 6,100  Level Chicago Center
Mon 10:17:41 PM 42.6050 -84.4922 294° West 166 191 6,100  Level Chicago Center
Mon 10:18:42 PM 42.6217 -84.5503 291° West 166 191 6,100  Level Chicago Center
Mon 10:19:43 PM 42.6417 -84.6061 296° West 165 190 6,100  Level Chicago Center
Mon 10:20:44 PM 42.6600 -84.6617 294° West 163 188 6,100  Level Chicago Center
Mon 10:21:45 PM 42.6736 -84.7225 287° West 166 191 6,100  Level Chicago Center
Mon 10:22:47 PM 42.6897 -84.7808 291° West 166 191 6,100  Level Chicago Center
Mon 10:23:48 PM 42.7053 -84.8397 290° West 166 191 6,100  Level Chicago Center
Mon 10:24:49 PM 42.7217 -84.8986 291° West 168 193 6,100  Level Chicago Center
Mon 10:25:50 PM 42.7369 -84.9572 290° West 166 191 6,100  Level Chicago Center
Mon 10:26:51 PM 42.7528 -85.0156 290° West 166 191 6,100  Level Chicago Center
Mon 10:27:52 PM 42.7700 -85.0875 288° West 166 191 6,100  Level Chicago Center
Mon 10:28:53 PM 42.7853 -85.1467 289° West 166 191 6,100 -244 Level Chicago Center
Mon 10:29:55 PM 42.8006 -85.2078 289° West 169 194 5,600 -829 Descending Chicago Center
Mon 10:30:56 PM 42.8197 -85.2772 291° West 188 216 4,400 -984 Descending Chicago Center
Mon 10:31:57 PM 42.8414 -85.3511 292° West 205 236 3,600 -984 Descending Chicago Center
Mon 10:32:58 PM 42.8631 -85.4214 293° West 205 236 2,400 -1,180 Descending Chicago Center
Mon 10:33:59 PM 42.8792 -85.4856 289° West 193 222 1,200 -689 Descending Chicago Center
Mon 10:35:00 PM 42.8839 -85.5311 278° West 175 201 1,000 -197 Descending Chicago Center
Mon 10:36:00 PM 42.8808 -85.5228 270° West  Level Estimated
Mon 10:43:00 PM 42.8808 -85.5228 270° West  Level Estimated

Login

Don't have an account? Register now (free) for customized features, flight alerts, and more!